Kystfisk — LG3440 — position and weather

sailwx.info

Track history (hours):
 
Tides and Currents Weather Stations Pressure Air Temp Water Temp Dewpoint Dewpoint Depression Visibility Wind Speed Wind Dir Waves Ship Positions

Kystfisk

Last reported at 2018-Apr-26 13:16 UTC. Time now 2018-Apr-27 08:50 UTC.
Position N 63°05' E 007°31'.

Length 12 m.

Type: Fishing. MMSI: 258307000.

Date/timePositionNaut miles runAvg speedWind from/ knotsBaromVisibWave heightAir tempDewpointWater temp
2018-Apr-26 13:16N 63°05' E 007°31'410.8
2018-Apr-26 12:54N 63°07' E 007°37'3 7.5
2018-Apr-26 12:28N 63°07' E 007°44'0 0.0
2018-Apr-26 11:58N 63°07' E 007°44'0 0.0
2018-Apr-26 11:28N 63°07' E 007°44'0 0.0
2018-Apr-26 10:58N 63°07' E 007°44'0 0.0
2018-Apr-26 10:28N 63°07' E 007°44'0 0.0
2018-Apr-26 09:58N 63°07' E 007°44'0 0.0
2018-Apr-26 09:28N 63°07' E 007°44'1 2.6
2018-Apr-26 08:58N 63°07' E 007°47'2 3.3
2018-Apr-26 08:30N 63°06' E 007°44'4 7.7
2018-Apr-26 08:00N 63°06' E 007°35'2 0.1
2018-Apr-25 10:36N 63°05' E 007°31'1 6.2
2018-Apr-25 10:30N 63°04' E 007°31'1 0.2
2018-Apr-25 05:34N 63°04' E 007°29'1 0.1
2018-Apr-24 16:09N 63°05' E 007°31'0 0.0
2018-Apr-24 15:46N 63°05' E 007°31'0 0.0
2018-Apr-24 15:30N 63°05' E 007°31'2 4.6
2018-Apr-24 14:58N 63°06' E 007°36'4 8.1
2018-Apr-24 14:30N 63°06' E 007°44'0 0.4
2018-Apr-24 13:58N 63°07' E 007°44'2 3.8
2018-Apr-24 13:30N 63°08' E 007°47'5613.5
2018-Apr-24 09:22N 63°40' E 009°28'83 7.7
2018-Apr-23 22:36N 64°50' E 011°11'114.7
2018-Apr-23 22:30N 64°51' E 011°13'2 3.3
2018-Apr-23 22:00N 64°52' E 011°16'714.9
2018-Apr-23 21:30N 64°57' E 011°29'  
Track history (hours):
 
Tides and Currents Weather Stations Pressure Air Temp Water Temp Dewpoint Dewpoint Depression Visibility Wind Speed Wind Dir Waves Ship Positions

Kystfisk

Last reported at 2018-Apr-26 13:16 UTC. Time now 2018-Apr-27 08:50 UTC.
Position N 63°05' E 007°31'.

Length 12 m.

Type: Fishing. MMSI: 258307000.

Date/timePositionNaut miles runAvg speedWind from/ knotsBaromVisibWave heightAir tempDewpointWater temp
2018-Apr-26 13:16N 63°05' E 007°31'410.8
2018-Apr-26 12:54N 63°07' E 007°37'3 7.5
2018-Apr-26 12:28N 63°07' E 007°44'0 0.0
2018-Apr-26 11:58N 63°07' E 007°44'0 0.0
2018-Apr-26 11:28N 63°07' E 007°44'0 0.0
2018-Apr-26 10:58N 63°07' E 007°44'0 0.0
2018-Apr-26 10:28N 63°07' E 007°44'0 0.0
2018-Apr-26 09:58N 63°07' E 007°44'0 0.0
2018-Apr-26 09:28N 63°07' E 007°44'1 2.6
2018-Apr-26 08:58N 63°07' E 007°47'2 3.3
2018-Apr-26 08:30N 63°06' E 007°44'4 7.7
2018-Apr-26 08:00N 63°06' E 007°35'2 0.1
2018-Apr-25 10:36N 63°05' E 007°31'1 6.2
2018-Apr-25 10:30N 63°04' E 007°31'1 0.2
2018-Apr-25 05:34N 63°04' E 007°29'1 0.1
2018-Apr-24 16:09N 63°05' E 007°31'0 0.0
2018-Apr-24 15:46N 63°05' E 007°31'0 0.0
2018-Apr-24 15:30N 63°05' E 007°31'2 4.6
2018-Apr-24 14:58N 63°06' E 007°36'4 8.1
2018-Apr-24 14:30N 63°06' E 007°44'0 0.4
2018-Apr-24 13:58N 63°07' E 007°44'2 3.8
2018-Apr-24 13:30N 63°08' E 007°47'5613.5
2018-Apr-24 09:22N 63°40' E 009°28'83 7.7
2018-Apr-23 22:36N 64°50' E 011°11'114.7
2018-Apr-23 22:30N 64°51' E 011°13'2 3.3
2018-Apr-23 22:00N 64°52' E 011°16'714.9
2018-Apr-23 21:30N 64°57' E 011°29'  

Dump ship's entire track history